Time;durP1;ratioP1;P1;durP2;ratioP2;P2;SDS_P1;SDS_P2;PMS_P1;PMS_P2;Temp;Humidity;BMP_temperature;BMP_pressure;BME280_temperature;BME280_humidity;BME280_pressure;Samples;Min_cycle;Max_cycle;Signal;HPM_P1;HPM_P2
2023/01/17 00:00:09;;;;;;;0.60;0.60;;;;;;;17.56;45.00;98056.22;5025952;28;20092;-52
2023/01/17 00:02:35;;;;;;;0.98;0.60;;;;;;;17.56;44.90;98058.09;5026077;28;20053;-48
2023/01/17 00:10:28;;;;;;;0.50;0.50;;;;;;;17.55;45.42;98072.56;5025871;28;20041;-49
2023/01/17 00:13:02;;;;;;;0.82;0.60;;;;;;;17.55;44.96;98072.56;5025944;28;20030;-51
2023/01/17 00:15:29;;;;;;;1.42;0.70;;;;;;;17.54;44.90;98077.09;5025710;28;20458;-54
2023/01/17 00:17:55;;;;;;;0.60;0.60;;;;;;;17.53;44.91;98075.47;5025773;28;20022;-49
2023/01/17 00:26:02;;;;;;;0.60;0.60;;;;;;;17.44;44.96;98080.34;5025749;28;20048;-51
2023/01/17 01:35:22;;;;;;;0.73;0.65;;;;;;;17.42;44.65;98224.81;5022841;28;20037;-52
2023/01/17 01:37:47;;;;;;;1.05;0.70;;;;;;;17.38;44.84;98212.06;5024598;28;20106;-49
2023/01/17 01:40:13;;;;;;;0.90;0.80;;;;;;;17.41;45.03;98227.69;5024789;28;20105;-47
2023/01/17 01:42:52;;;;;;;1.50;0.90;;;;;;;17.40;44.86;98237.63;5024658;28;20033;-51
2023/01/17 01:45:21;;;;;;;0.63;0.63;;;;;;;17.38;44.79;98246.97;5024547;28;20025;-47
2023/01/17 01:47:47;;;;;;;0.60;0.55;;;;;;;17.40;44.83;98253.75;5024734;28;20034;-50
2023/01/17 01:50:12;;;;;;;0.52;0.52;;;;;;;17.39;44.66;98262.84;5006081;28;20030;-48
2023/01/17 01:52:41;;;;;;;0.60;0.60;;;;;;;17.41;44.70;98270.66;5024336;28;20081;-49
2023/01/17 01:55:10;;;;;;;0.73;0.60;;;;;;;17.34;44.95;98264.56;5024290;28;20467;-46
2023/01/17 01:57:40;;;;;;;0.60;0.60;;;;;;;17.40;44.73;98285.97;5006659;28;20037;-53
2023/01/17 02:00:10;;;;;;;0.55;0.50;;;;;;;17.39;44.56;98286.19;5023162;28;20057;-48
2023/01/17 02:02:36;;;;;;;0.60;0.60;;;;;;;17.39;44.80;98294.25;5006860;28;20116;-47
2023/01/17 02:05:02;;;;;;;2.13;0.70;;;;;;;17.40;44.83;98302.09;5024094;28;20045;-48
2023/01/17 02:07:32;;;;;;;0.77;0.70;;;;;;;17.38;44.74;98304.19;5023390;28;20038;-50
2023/01/17 02:09:57;;;;;;;0.63;0.60;;;;;;;17.38;44.85;98303.38;5024647;28;20032;-49
2023/01/17 02:12:23;;;;;;;0.80;0.80;;;;;;;17.38;44.68;98308.75;5009685;28;20097;-50
2023/01/17 02:14:49;;;;;;;0.75;0.60;;;;;;;17.38;44.74;98311.44;5026170;28;20022;-48
2023/01/17 02:17:32;;;;;;;0.73;0.68;;;;;;;17.36;44.53;98317.00;5027703;28;20029;-47
2023/01/17 02:20:25;;;;;;;0.95;0.70;;;;;;;17.36;44.59;98314.31;5025922;28;20040;-49
2023/01/17 02:23:15;;;;;;;0.90;0.60;;;;;;;17.36;44.68;98322.38;5027706;28;20542;-50
2023/01/17 02:25:55;;;;;;;0.80;0.70;;;;;;;17.36;44.56;98326.91;5027623;28;20036;-53
2023/01/17 02:28:45;;;;;;;0.60;0.60;;;;;;;17.34;44.75;98321.78;5010354;28;20089;-50
2023/01/17 02:31:20;;;;;;;0.63;0.60;;;;;;;17.34;44.72;98323.66;5010077;28;20026;-49
2023/01/17 02:34:07;;;;;;;0.70;0.70;;;;;;;17.33;44.70;98330.03;5009885;28;20463;-51
2023/01/17 02:36:35;;;;;;;0.63;0.60;;;;;;;17.21;44.63;98309.31;5027682;28;20093;-53
2023/01/17 02:39:23;;;;;;;0.60;0.60;;;;;;;17.32;44.61;98321.16;5009475;28;20109;-49
2023/01/17 02:41:53;;;;;;;0.60;0.60;;;;;;;17.31;44.70;98316.03;5010319;28;20030;-51
2023/01/17 02:44:19;;;;;;;0.60;0.60;;;;;;;17.32;44.62;98325.72;5009807;28;20271;-51
2023/01/17 02:46:45;;;;;;;0.77;0.77;;;;;;;17.30;44.51;98336.69;5027534;28;20025;-49
2023/01/17 02:49:11;;;;;;;0.80;0.80;;;;;;;17.31;44.74;98342.88;5027700;28;20026;-50
2023/01/17 02:52:09;;;;;;;0.82;0.70;;;;;;;17.30;44.63;98339.38;5009641;28;20065;-49
2023/01/17 02:54:45;;;;;;;0.60;0.60;;;;;;;17.30;44.81;98343.94;5005861;28;20041;-51
2023/01/17 02:57:40;;;;;;;1.15;0.70;;;;;;;17.29;44.55;98353.84;5027226;28;20490;-46
2023/01/17 03:00:22;;;;;;;0.57;0.50;;;;;;;17.27;44.56;98350.56;5026208;28;20163;-47
2023/01/17 03:02:57;;;;;;;0.70;0.70;;;;;;;17.26;44.80;98356.16;5009792;28;20667;-48
2023/01/17 03:05:30;;;;;;;0.70;0.68;;;;;;;17.28;44.71;98365.63;5026919;28;20026;-50
2023/01/17 03:07:55;;;;;;;0.90;0.70;;;;;;;17.28;44.58;98370.16;5009744;28;20065;-48
2023/01/17 03:10:21;;;;;;;0.60;0.60;;;;;;;17.26;44.63;98365.03;5026908;28;20041;-51
2023/01/17 03:12:46;;;;;;;0.50;0.50;;;;;;;17.21;44.53;98371.06;5009670;28;20013;-48
2023/01/17 03:15:16;;;;;;;0.75;0.75;;;;;;;17.27;44.67;98379.28;5009176;28;20025;-50
2023/01/17 03:17:45;;;;;;;0.65;0.65;;;;;;;17.21;44.50;98372.94;5027014;28;20021;-51
2023/01/17 03:20:11;;;;;;;0.60;0.60;;;;;;;17.26;44.32;98372.25;5009144;28;20030;-53
2023/01/17 03:22:37;;;;;;;1.30;1.00;;;;;;;17.26;44.30;98383.00;5026037;28;20049;-46
2023/01/17 03:25:02;;;;;;;0.80;0.70;;;;;;;17.24;44.62;98386.72;5026665;28;20029;-48
2023/01/17 03:27:27;;;;;;;0.60;0.60;;;;;;;17.24;44.31;98392.09;5026892;28;20072;-48
2023/01/17 03:29:53;;;;;;;0.63;0.63;;;;;;;17.24;44.45;98385.88;5026437;28;20025;-49
2023/01/17 03:32:18;;;;;;;1.20;0.80;;;;;;;17.24;44.51;98397.44;5026688;28;20029;-47
2023/01/17 03:34:43;;;;;;;0.88;0.68;;;;;;;17.22;44.50;98401.41;5012808;28;20499;-48
2023/01/17 03:37:09;;;;;;;1.77;0.80;;;;;;;17.22;44.33;98407.59;5006808;28;20038;-51
2023/01/17 03:39:34;;;;;;;0.85;0.75;;;;;;;17.22;44.41;98404.91;5006428;28;20204;-50
2023/01/17 03:41:59;;;;;;;0.75;0.75;;;;;;;17.19;44.22;98401.84;5006840;28;20018;-47
2023/01/17 03:44:24;;;;;;;1.10;0.88;;;;;;;17.23;44.15;98408.41;5006695;28;20724;-49
2023/01/17 03:46:50;;;;;;;1.95;1.50;;;;;;;17.20;44.16;98411.53;5006948;28;20030;-48
2023/01/17 03:49:15;;;;;;;2.35;0.70;;;;;;;17.21;44.43;98410.50;5010047;28;20026;-47
2023/01/17 03:51:41;;;;;;;0.70;0.70;;;;;;;17.21;44.13;98421.25;5026334;28;20081;-49
2023/01/17 03:54:06;;;;;;;1.00;0.70;;;;;;;17.20;44.20;98419.59;5026229;28;20097;-49
2023/01/17 03:56:31;;;;;;;0.98;0.88;;;;;;;17.20;43.95;98408.84;5026113;28;20044;-51
2023/01/17 03:58:57;;;;;;;0.68;0.68;;;;;;;17.20;44.16;98420.44;5025990;28;20026;-50
2023/01/17 04:01:22;;;;;;;0.85;0.85;;;;;;;17.19;44.12;98408.03;5026007;28;20064;-46
2023/01/17 04:03:48;;;;;;;1.02;0.75;;;;;;;17.19;43.97;98410.72;5025348;28;20477;-53
2023/01/17 04:06:13;;;;;;;1.45;0.90;;;;;;;17.15;44.14;98409.50;5026101;28;20030;-49
2023/01/17 04:08:38;;;;;;;1.02;0.70;;;;;;;17.20;43.95;98419.59;5025793;28;20049;-51
2023/01/17 04:11:03;;;;;;;1.00;0.63;;;;;;;17.19;44.07;98413.41;5025859;28;20398;-52
2023/01/17 04:13:29;;;;;;;1.52;1.00;;;;;;;17.19;44.09;98415.25;5025935;28;20056;-50
2023/01/17 04:15:54;;;;;;;0.60;0.60;;;;;;;17.17;43.97;98420.03;5025558;28;20467;-53
2023/01/17 04:18:21;;;;;;;0.90;0.70;;;;;;;17.18;44.04;98435.09;5025907;28;20025;-48
2023/01/17 04:20:47;;;;;;;0.60;0.60;;;;;;;17.17;43.92;98436.97;4992274;28;20062;-52
2023/01/17 04:23:12;;;;;;;1.35;0.88;;;;;;;17.13;44.01;98432.25;5006032;28;20092;-51
2023/01/17 04:25:37;;;;;;;0.93;0.90;;;;;;;17.16;43.97;98448.75;5005985;28;20387;-48
2023/01/17 04:28:03;;;;;;;1.00;0.70;;;;;;;17.17;44.05;98453.09;5006080;28;20041;-50
2023/01/17 04:30:29;;;;;;;1.25;0.80;;;;;;;17.16;43.85;98455.97;5005678;28;20056;-50
2023/01/17 04:32:55;;;;;;;0.90;0.80;;;;;;;17.16;43.90;98462.19;5009352;28;20025;-50
2023/01/17 04:35:20;;;;;;;1.13;0.80;;;;;;;17.10;43.83;98454.16;5023950;28;20100;-51
2023/01/17 04:37:45;;;;;;;0.70;0.70;;;;;;;17.15;43.78;98465.06;5025243;28;20042;-49
2023/01/17 04:40:11;;;;;;;1.20;0.70;;;;;;;17.12;43.71;98463.66;5025421;28;20030;-50
2023/01/17 04:42:36;;;;;;;1.08;0.75;;;;;;;17.13;43.98;98462.63;5025217;28;20030;-49
2023/01/17 04:45:02;;;;;;;1.25;0.98;;;;;;;17.13;44.01;98457.25;5025367;28;20022;-53
2023/01/17 04:47:28;;;;;;;1.95;0.70;;;;;;;17.11;43.88;98459.31;5025513;28;20034;-51
2023/01/17 04:49:53;;;;;;;1.05;0.70;;;;;;;17.12;43.60;98422.53;5025165;28;20034;-47
2023/01/17 04:52:19;;;;;;;0.75;0.70;;;;;;;17.12;43.50;98411.81;5025548;28;20046;-51
2023/01/17 04:54:48;;;;;;;1.33;0.80;;;;;;;17.10;43.64;98412.03;5025327;28;20029;-50
2023/01/17 04:57:14;;;;;;;0.90;0.90;;;;;;;17.10;43.61;98425.44;5025356;28;20064;-50
2023/01/17 04:59:39;;;;;;;2.00;0.85;;;;;;;17.05;43.69;98411.84;5025081;28;20081;-52
2023/01/17 05:02:04;;;;;;;2.00;0.90;;;;;;;17.10;43.62;98422.75;5025311;28;20026;-46
2023/01/17 05:04:30;;;;;;;0.82;0.70;;;;;;;17.11;43.75;98435.13;5024703;28;20083;-51
2023/01/17 05:06:55;;;;;;;1.33;0.80;;;;;;;17.08;43.48;98440.16;5024936;28;20030;-50
2023/01/17 05:09:20;;;;;;;1.30;0.90;;;;;;;17.10;43.57;98440.75;5025012;28;20025;-49
2023/01/17 05:11:46;;;;;;;1.25;0.75;;;;;;;17.09;43.43;98450.66;5025253;28;20045;-50
2023/01/17 05:14:11;;;;;;;2.05;1.00;;;;;;;17.10;43.50;98454.97;5025202;28;20479;-50
2023/01/17 05:16:36;;;;;;;1.13;0.90;;;;;;;17.07;43.65;98452.72;5024902;28;20116;-47
2023/01/17 05:19:01;;;;;;;3.38;1.20;;;;;;;17.09;43.37;98456.03;5023047;28;20033;-48
2023/01/17 05:21:27;;;;;;;1.65;1.10;;;;;;;17.09;43.44;98469.44;4987775;28;20030;-49
2023/01/17 05:23:52;;;;;;;1.38;1.27;;;;;;;17.09;43.45;98471.31;5005045;28;20100;-49
2023/01/17 05:26:17;;;;;;;1.95;1.00;;;;;;;17.07;43.39;98474.19;5005570;28;20018;-50
2023/01/17 05:28:43;;;;;;;1.30;1.20;;;;;;;17.07;43.59;98474.19;5005339;28;20179;-51
2023/01/17 05:31:08;;;;;;;2.22;1.83;;;;;;;17.08;43.74;98485.78;5010088;28;20506;-52
2023/01/17 05:33:33;;;;;;;3.10;2.63;;;;;;;17.08;43.42;98488.47;5006913;28;20026;-50
2023/01/17 05:35:58;;;;;;;2.65;2.45;;;;;;;17.06;43.39;98483.31;5024194;28;20030;-49
2023/01/17 05:38:24;;;;;;;2.17;2.03;;;;;;;17.07;43.53;98486.81;5024476;28;20081;-51
2023/01/17 05:40:49;;;;;;;2.40;2.20;;;;;;;17.08;43.55;98496.53;5024180;28;20026;-54
2023/01/17 05:43:15;;;;;;;2.83;2.20;;;;;;;17.06;43.45;98499.41;5006936;28;20022;-49
2023/01/17 05:45:40;;;;;;;2.72;2.50;;;;;;;17.06;43.59;98502.09;5025385;28;20395;-48
2023/01/17 05:48:06;;;;;;;2.53;2.33;;;;;;;17.06;43.45;98506.63;5028783;28;20021;-49
2023/01/17 05:50:34;;;;;;;2.65;2.45;;;;;;;17.05;43.62;98508.50;5028064;28;20017;-49
2023/01/17 05:53:05;;;;;;;2.20;2.10;;;;;;;16.99;43.42;98495.91;5028588;28;20018;-51
2023/01/17 05:55:31;;;;;;;2.70;2.50;;;;;;;17.05;43.54;98515.75;5028060;28;20036;-52
2023/01/17 05:57:56;;;;;;;2.83;2.63;;;;;;;17.06;43.73;98517.38;5028176;28;20108;-51
2023/01/17 06:00:22;;;;;;;2.65;2.42;;;;;;;17.03;43.66;98515.13;5028018;28;20035;-52
2023/01/17 06:02:48;;;;;;;2.55;2.30;;;;;;;17.04;43.79;98520.28;5028691;28;20452;-51
2023/01/17 06:05:14;;;;;;;3.10;2.83;;;;;;;17.03;43.79;98515.94;5026956;28;20026;-48
2023/01/17 06:07:42;;;;;;;3.65;3.25;;;;;;;17.04;44.06;98516.78;5024759;28;20030;-51
2023/01/17 06:10:09;;;;;;;2.50;2.30;;;;;;;17.03;44.11;98526.66;5027650;28;20018;-51
2023/01/17 06:12:35;;;;;;;3.00;2.70;;;;;;;17.02;44.06;98513.47;5023359;28;20104;-54
2023/01/17 06:15:00;;;;;;;3.42;2.30;;;;;;;17.04;44.08;98540.94;5024080;28;20526;-52
2023/01/17 06:17:25;;;;;;;2.67;2.45;;;;;;;17.00;44.15;98529.81;5022967;28;20052;-51
2023/01/17 06:19:51;;;;;;;3.08;2.60;;;;;;;17.04;44.49;98527.53;5023052;28;20368;-53
2023/01/17 06:22:16;;;;;;;3.42;2.65;;;;;;;17.04;44.51;98535.56;5008283;28;20034;-52
2023/01/17 06:24:41;;;;;;;3.03;2.72;;;;;;;17.04;44.62;98532.91;5018180;28;20025;-53
2023/01/17 06:27:10;;;;;;;2.55;2.28;;;;;;;17.07;44.69;98540.50;5027407;28;20105;-50
2023/01/17 06:29:35;;;;;;;3.28;2.47;;;;;;;17.09;44.97;98541.13;5026584;28;20034;-53
2023/01/17 06:32:02;;;;;;;2.70;2.50;;;;;;;17.08;44.76;98547.53;5027187;28;20036;-51
2023/01/17 06:34:27;;;;;;;2.38;2.17;;;;;;;17.06;44.84;98545.03;5024638;28;20036;-49
2023/01/17 06:36:53;;;;;;;2.97;2.28;;;;;;;17.10;44.99;98550.81;5026991;28;20025;-54
2023/01/17 06:39:18;;;;;;;3.05;2.22;;;;;;;17.10;44.99;98545.44;5026983;28;20049;-54
2023/01/17 06:41:43;;;;;;;2.28;2.08;;;;;;;17.09;44.87;98544.63;5026904;28;20262;-54
2023/01/17 06:44:10;;;;;;;2.58;2.35;;;;;;;17.09;45.09;98549.19;5027123;28;20161;-54
2023/01/17 06:46:35;;;;;;;3.22;2.60;;;;;;;17.10;45.07;98554.31;5026524;28;20037;-52
2023/01/17 06:49:00;;;;;;;2.45;2.20;;;;;;;17.10;45.26;98548.94;5027071;28;20022;-54
2023/01/17 06:51:26;;;;;;;2.30;1.73;;;;;;;17.10;45.09;98554.31;5026708;28;20034;-53
2023/01/17 06:53:52;;;;;;;2.90;2.28;;;;;;;17.11;45.00;98555.13;5026679;28;20037;-59
2023/01/17 06:56:17;;;;;;;2.10;1.90;;;;;;;17.12;44.98;98556.78;5026301;28;20033;-58
2023/01/17 06:58:42;;;;;;;2.83;2.30;;;;;;;17.11;44.95;98565.88;5025508;28;20030;-58
2023/01/17 07:01:09;;;;;;;2.05;1.95;;;;;;;17.12;45.06;98562.16;5026371;28;20033;-59
2023/01/17 07:03:34;;;;;;;2.83;1.77;;;;;;;17.11;44.96;98571.25;5025784;28;20037;-56
2023/01/17 07:06:01;;;;;;;2.42;2.08;;;;;;;17.11;45.30;98574.75;5023928;28;20034;-59
2023/01/17 07:08:27;;;;;;;4.85;2.67;;;;;;;17.11;45.28;98582.81;5025875;28;20087;-58
2023/01/17 07:10:57;;;;;;;2.33;2.10;;;;;;;17.11;45.01;98580.13;5026071;28;20026;-58
2023/01/17 07:13:22;;;;;;;2.55;1.83;;;;;;;17.11;45.14;98582.81;5026476;28;20459;-58
2023/01/17 07:15:48;;;;;;;2.20;1.63;;;;;;;17.12;45.37;98586.31;5025953;28;20026;-58
2023/01/17 07:18:13;;;;;;;2.08;1.80;;;;;;;17.12;45.09;98589.84;5026363;28;20021;-59
2023/01/17 07:20:40;;;;;;;3.97;2.00;;;;;;;17.17;45.17;98594.56;5026186;28;20025;-59
2023/01/17 07:23:05;;;;;;;3.45;1.90;;;;;;;17.19;45.15;98595.16;5026136;28;20037;-59
2023/01/17 07:25:30;;;;;;;2.33;1.70;;;;;;;17.17;45.17;98592.72;5026112;28;20021;-59
2023/01/17 07:27:56;;;;;;;1.70;1.60;;;;;;;17.21;44.86;98593.94;5026419;28;20049;-60
2023/01/17 07:30:22;;;;;;;2.05;1.83;;;;;;;17.23;44.92;98604.44;5026244;28;20022;-59
2023/01/17 07:32:54;;;;;;;2.92;1.90;;;;;;;17.22;44.81;98598.25;5026445;28;20045;-60
2023/01/17 07:35:20;;;;;;;2.20;1.85;;;;;;;17.24;44.91;98598.03;5026101;28;20044;-59
2023/01/17 07:37:49;;;;;;;2.40;1.73;;;;;;;17.23;44.65;98597.22;5026267;28;20054;-59
2023/01/17 07:40:16;;;;;;;;;;;;;;;17.23;44.66;98593.72;5026740;28;20052;-59
2023/01/17 07:42:42;;;;;;;2.40;1.95;;;;;;;17.22;44.50;98603.63;5026486;28;19917;-59
2023/01/17 07:45:08;;;;;;;2.90;1.92;;;;;;;17.21;44.56;98596.63;5025952;28;20550;-59
2023/01/17 07:47:33;;;;;;;2.90;1.80;;;;;;;17.20;44.20;98594.13;5026372;28;20049;-59
2023/01/17 07:50:00;;;;;;;2.25;1.75;;;;;;;17.20;44.41;98583.38;5025233;28;20498;-53
2023/01/17 07:52:26;;;;;;;7.38;2.30;;;;;;;17.22;44.87;98587.53;5025658;28;20041;-59
2023/01/17 07:54:51;;;;;;;3.63;1.60;;;;;;;17.23;44.67;98591.03;5025489;28;20484;-58
2023/01/17 07:57:16;;;;;;;1.88;1.77;;;;;;;17.23;44.36;98581.09;5025619;28;20030;-58
2023/01/17 07:59:41;;;;;;;3.25;1.58;;;;;;;17.24;44.60;98584.59;5025440;28;20087;-57
2023/01/17 08:02:16;;;;;;;3.58;1.90;;;;;;;17.24;44.40;98582.75;5025127;28;20032;-57
2023/01/17 08:04:41;;;;;;;2.30;1.95;;;;;;;17.23;44.32;98583.78;5025380;28;20025;-56
2023/01/17 08:07:07;;;;;;;2.40;2.00;;;;;;;17.20;44.24;98573.50;5025676;28;20033;-58
2023/01/17 08:09:32;;;;;;;3.00;1.67;;;;;;;17.20;44.34;98584.25;5025246;28;20076;-58
2023/01/17 08:11:57;;;;;;;1.60;1.50;;;;;;;17.23;44.13;98581.09;5024226;28;20026;-58
2023/01/17 08:14:22;;;;;;;2.53;1.77;;;;;;;17.24;44.07;98589.97;5025650;28;20025;-52
2023/01/17 08:16:48;;;;;;;2.58;1.67;;;;;;;17.22;44.06;98584.84;5025796;28;20036;-56
2023/01/17 08:19:14;;;;;;;4.00;2.13;;;;;;;17.22;43.88;98592.06;5025715;28;20034;-57
2023/01/17 08:21:39;;;;;;;2.83;1.80;;;;;;;17.23;44.15;98594.53;5025311;28;20034;-58
2023/01/17 08:24:04;;;;;;;2.05;1.70;;;;;;;17.22;43.84;98594.75;5025734;28;20041;-57
2023/01/17 08:26:30;;;;;;;2.30;2.00;;;;;;;17.22;44.02;98595.56;5025164;28;20037;-56
2023/01/17 08:28:59;;;;;;;2.60;2.00;;;;;;;17.23;43.61;98594.53;5025762;28;20056;-55
2023/01/17 08:31:25;;;;;;;3.88;2.25;;;;;;;17.23;43.83;98591.03;5025369;28;20085;-56
2023/01/17 08:33:50;;;;;;;2.47;2.08;;;;;;;17.22;43.75;98590.22;5025223;28;20037;-58
2023/01/17 08:36:15;;;;;;;3.17;2.13;;;;;;;17.21;43.57;98585.88;5024725;28;20025;-57
2023/01/17 08:38:41;;;;;;;3.83;1.92;;;;;;;17.23;43.55;98594.53;5024949;28;20046;-57
2023/01/17 08:41:06;;;;;;;2.35;2.15;;;;;;;17.22;43.79;98592.88;5025176;28;20057;-57
2023/01/17 08:43:31;;;;;;;2.75;2.00;;;;;;;17.22;43.73;98597.44;5025327;28;20049;-57
2023/01/17 08:45:56;;;;;;;2.65;2.22;;;;;;;17.22;43.63;98600.13;5024750;28;20053;-58
2023/01/17 08:48:22;;;;;;;3.22;2.45;;;;;;;17.15;43.39;98581.34;5025684;28;20037;-58
2023/01/17 08:50:48;;;;;;;2.42;1.90;;;;;;;17.22;43.41;98594.75;5024979;28;20037;-58
2023/01/17 08:53:14;;;;;;;2.67;2.30;;;;;;;17.31;43.38;98601.53;5025545;28;20022;-58
2023/01/17 08:55:39;;;;;;;2.80;2.33;;;;;;;17.34;43.15;98613.72;5024594;28;20049;-58
2023/01/17 08:58:06;;;;;;;2.55;2.20;;;;;;;17.33;42.98;98607.53;5025046;28;20037;-58
2023/01/17 09:00:31;;;;;;;2.22;2.08;;;;;;;17.40;42.72;98613.66;5024852;28;20026;-58
2023/01/17 09:02:57;;;;;;;2.85;2.30;;;;;;;17.43;42.93;98623.16;5007261;28;20030;-57
2023/01/17 09:05:22;;;;;;;3.50;2.30;;;;;;;17.45;43.07;98623.75;5024158;28;20054;-58
2023/01/17 09:07:47;;;;;;;2.60;2.05;;;;;;;17.44;43.01;98622.94;5025234;28;20625;-58
2023/01/17 09:10:12;;;;;;;3.05;1.95;;;;;;;17.45;42.78;98623.75;5024608;28;20022;-57
2023/01/17 09:12:39;;;;;;;2.58;2.20;;;;;;;17.42;42.72;98622.34;5024377;28;20033;-58
2023/01/17 09:15:05;;;;;;;2.35;2.15;;;;;;;17.44;42.72;98620.25;5024110;28;20022;-59
2023/01/17 09:17:30;;;;;;;3.08;2.10;;;;;;;17.44;42.59;98628.31;5024266;28;20025;-64
2023/01/17 09:19:58;;;;;;;4.07;1.98;;;;;;;17.42;42.87;98634.97;5015390;28;20057;-57
2023/01/17 09:22:23;;;;;;;3.47;2.45;;;;;;;17.39;43.15;98625.44;5023829;28;20064;-61
2023/01/17 09:24:49;;;;;;;3.05;2.15;;;;;;;17.37;43.16;98624.81;5023565;28;20030;-60
2023/01/17 09:27:14;;;;;;;2.35;2.10;;;;;;;17.37;42.87;98627.50;5024432;28;20030;-60
2023/01/17 09:29:39;;;;;;;2.97;2.13;;;;;;;17.37;42.92;98630.19;5023975;28;20030;-61
2023/01/17 09:32:04;;;;;;;2.65;2.22;;;;;;;17.37;43.28;98637.44;5017973;28;20187;-64
2023/01/17 09:34:30;;;;;;;3.50;2.67;;;;;;;17.37;43.19;98642.81;5016673;28;20038;-61
2023/01/17 09:36:55;;;;;;;2.38;2.10;;;;;;;17.37;43.32;98640.94;5023845;28;20056;-60
2023/01/17 09:39:21;;;;;;;2.53;1.90;;;;;;;17.37;43.54;98643.63;5020906;28;20407;-60
2023/01/17 09:42:02;;;;;;;2.08;1.88;;;;;;;17.37;43.60;98640.94;5022709;28;20041;-60
2023/01/17 09:44:40;;;;;;;6.60;2.17;;;;;;;17.37;43.74;98648.19;5023448;28;20023;-66
2023/01/17 09:47:24;;;;;;;2.45;2.03;;;;;;;17.38;43.82;98650.69;5006473;28;20097;-65
2023/01/17 09:49:50;;;;;;;2.30;2.08;;;;;;;17.39;43.71;98652.31;5023370;28;20066;-61
2023/01/17 09:52:20;;;;;;;2.45;2.15;;;;;;;17.38;43.68;98661.41;5006323;28;20032;-63
2023/01/17 09:54:47;;;;;;;3.70;2.03;;;;;;;17.38;43.80;98661.41;5006066;28;20028;-63
2023/01/17 09:57:24;;;;;;;3.13;2.25;;;;;;;17.39;43.70;98662.25;5023691;28;20450;-63
2023/01/17 10:00:03;;;;;;;4.28;2.25;;;;;;;17.41;43.64;98670.91;5005631;28;20112;-61
2023/01/17 10:02:59;;;;;;;5.05;2.33;;;;;;;17.43;43.71;98683.09;5005353;28;20109;-62
2023/01/17 10:05:46;;;;;;;3.25;2.53;;;;;;;17.46;43.73;98687.22;5005328;28;20042;-65
2023/01/17 10:08:24;;;;;;;2.55;2.10;;;;;;;17.50;43.53;98677.69;5016969;28;20026;-61
2023/01/17 10:10:59;;;;;;;2.55;2.17;;;;;;;17.49;43.61;98676.84;5019985;28;20045;-64
2023/01/17 10:13:36;;;;;;;3.70;2.35;;;;;;;17.54;43.58;98686.13;5023194;28;20085;-64
2023/01/17 10:16:32;;;;;;;2.72;2.42;;;;;;;17.56;43.75;98690.25;5023645;28;20061;-65
2023/01/17 10:19:04;;;;;;;4.25;2.88;;;;;;;17.57;43.47;98689.22;5023768;28;20045;-59
2023/01/17 10:21:51;;;;;;;2.22;2.03;;;;;;;17.63;43.57;98696.44;5023493;28;20026;-61
2023/01/17 10:24:35;;;;;;;3.38;2.63;;;;;;;17.66;43.23;98695.16;5021259;28;20400;-61
2023/01/17 10:27:01;;;;;;;3.83;2.53;;;;;;;17.66;43.40;98697.88;5022608;28;20513;-63
2023/01/17 10:29:30;;;;;;;4.78;3.70;;;;;;;17.59;43.36;98692.53;5004845;28;20034;-62
2023/01/17 10:31:59;;;;;;;5.20;3.40;;;;;;;17.66;43.32;98696.00;4997190;28;20060;-62
2023/01/17 10:34:29;;;;;;;5.20;3.80;;;;;;;17.66;43.39;98700.53;5002003;28;20030;-63
2023/01/17 10:37:04;;;;;;;5.07;4.00;;;;;;;17.65;43.24;98694.34;5025945;28;20026;-63
2023/01/17 10:39:30;;;;;;;5.43;4.00;;;;;;;17.70;43.24;98699.09;5018294;28;20042;-61
2023/01/17 10:42:06;;;;;;;6.15;3.80;;;;;;;17.70;43.54;98693.72;5024976;28;20049;-61
2023/01/17 10:44:52;;;;;;;6.38;4.35;;;;;;;17.72;43.01;98694.34;5026524;28;20030;-58
2023/01/17 10:47:20;;;;;;;7.18;5.28;;;;;;;17.73;43.03;98695.97;5026368;28;20018;-57
2023/01/17 10:49:48;;;;;;;6.22;4.00;;;;;;;17.72;43.19;98691.66;5026921;28;20034;-62
2023/01/17 10:52:52;;;;;;;6.10;4.07;;;;;;;17.76;43.22;98697.44;5008089;28;20033;-62
2023/01/17 10:55:48;;;;;;;7.65;4.38;;;;;;;17.75;43.46;98693.91;5023514;28;20034;-64
2023/01/17 10:58:13;;;;;;;6.10;4.38;;;;;;;17.76;43.26;98692.06;5006111;28;20018;-63
2023/01/17 11:01:06;;;;;;;5.10;3.85;;;;;;;17.77;43.08;98689.16;5014375;28;20030;-64
2023/01/17 11:03:32;;;;;;;5.50;4.25;;;;;;;17.77;43.01;98691.03;5007970;28;20467;-64
2023/01/17 11:06:24;;;;;;;6.97;4.95;;;;;;;17.80;43.22;98690.59;5025564;28;20033;-64
2023/01/17 11:08:53;;;;;;;6.82;4.60;;;;;;;17.83;42.95;98699.03;5012272;28;20026;-59
2023/01/17 11:11:21;;;;;;;6.05;4.50;;;;;;;17.84;42.74;98687.28;5024175;28;20097;-59
2023/01/17 11:13:47;;;;;;;5.65;4.18;;;;;;;17.86;42.63;98684.34;5026081;28;20052;-60
2023/01/17 11:16:20;;;;;;;6.38;4.70;;;;;;;17.87;42.76;98681.44;5009064;28;20056;-60
2023/01/17 11:18:47;;;;;;;6.65;4.40;;;;;;;17.88;43.11;98687.63;5009437;28;20026;-59
2023/01/17 11:21:16;;;;;;;6.35;4.47;;;;;;;17.87;42.71;98681.44;5026698;28;20050;-60
2023/01/17 11:23:43;;;;;;;;;;;;;;;17.89;42.93;98679.38;5009445;28;20030;-60
2023/01/17 11:26:12;;;;;;;6.95;4.15;;;;;;;17.88;42.73;98680.44;5026575;28;19909;-60
2023/01/17 11:28:38;;;;;;;6.05;4.03;;;;;;;17.85;42.69;98678.16;5008502;28;20022;-59
2023/01/17 11:31:06;;;;;;;6.97;4.35;;;;;;;17.85;42.79;98680.84;5025956;28;20061;-60
2023/01/17 11:33:33;;;;;;;6.00;4.55;;;;;;;17.84;42.96;98673.84;5004041;28;20029;-59
2023/01/17 11:35:58;;;;;;;6.85;4.38;;;;;;;17.85;42.82;98680.03;5025523;28;20029;-59
2023/01/17 11:38:24;;;;;;;5.65;4.00;;;;;;;17.86;43.14;98689.75;5007790;28;20060;-58
2023/01/17 11:40:52;;;;;;;8.35;4.57;;;;;;;17.84;42.88;98686.44;5025251;28;20034;-60
2023/01/17 11:43:22;;;;;;;6.18;4.05;;;;;;;17.84;43.09;98689.97;5024036;28;20085;-61
2023/01/17 11:46:02;;;;;;;6.32;4.10;;;;;;;17.83;43.00;98685.59;5023604;28;20087;-60
2023/01/17 11:48:34;;;;;;;5.78;4.13;;;;;;;17.82;43.20;98681.28;5007270;28;20116;-60
2023/01/17 11:50:59;;;;;;;7.15;3.80;;;;;;;17.85;43.09;98685.41;5024522;28;20044;-60
2023/01/17 11:53:27;;;;;;;5.68;3.97;;;;;;;17.85;42.80;98686.22;5007798;28;20089;-59
2023/01/17 11:55:57;;;;;;;4.68;3.50;;;;;;;17.85;42.94;98678.16;5008104;28;20033;-60
2023/01/17 11:58:23;;;;;;;7.50;4.00;;;;;;;17.85;43.10;98675.47;5008464;28;20116;-60
2023/01/17 12:01:21;;;;;;;5.70;3.60;;;;;;;17.85;43.03;98680.84;5008220;28;20166;-60
2023/01/17 12:03:53;;;;;;;;;;;;;;;17.86;42.98;98679.81;5003448;28;20037;-60
2023/01/17 12:06:28;;;;;;;4.55;3.50;;;;;;;17.80;42.95;98663.69;5025671;28;19935;-60
2023/01/17 12:08:56;;;;;;;4.45;3.38;;;;;;;17.86;42.70;98679.81;5008097;28;20061;-60
2023/01/17 12:15:08;;;;;;;4.43;3.42;;;;;;;17.85;42.63;98674.66;4998389;28;20048;-60
2023/01/17 12:17:52;;;;;;;3.92;2.90;;;;;;;17.85;42.68;98671.97;5025258;28;20077;-58
2023/01/17 12:20:45;;;;;;;4.03;3.03;;;;;;;17.85;42.63;98672.78;5009927;28;20056;-60
2023/01/17 12:23:49;;;;;;;4.65;3.20;;;;;;;17.86;42.80;98671.75;5008271;28;20022;-60
2023/01/17 12:26:32;;;;;;;4.28;2.97;;;;;;;17.87;42.65;98672.56;4985787;28;20041;-59
2023/01/17 12:29:05;;;;;;;5.13;3.40;;;;;;;17.86;42.72;98671.75;5008070;28;20359;-60
2023/01/17 12:31:33;;;;;;;3.75;3.10;;;;;;;17.85;42.64;98655.84;4989186;28;20026;-59
2023/01/17 12:34:17;;;;;;;3.70;2.83;;;;;;;17.87;42.65;98673.38;5004673;28;20026;-59
2023/01/17 12:36:57;;;;;;;4.63;2.70;;;;;;;17.87;42.83;98662.63;5024223;28;20097;-59
2023/01/17 12:39:32;;;;;;;4.22;3.22;;;;;;;17.89;42.71;98662.44;5023837;28;20050;-60
2023/01/17 12:42:05;;;;;;;4.38;2.80;;;;;;;17.88;42.78;98655.38;5024860;28;20109;-60
2023/01/17 12:44:48;;;;;;;3.67;3.05;;;;;;;17.90;42.91;98659.50;5007922;28;20030;-61
2023/01/17 12:47:15;;;;;;;3.85;2.70;;;;;;;17.93;42.63;98663.66;5008043;28;20026;-61
2023/01/17 12:50:05;;;;;;;4.78;3.10;;;;;;;17.94;42.63;98657.22;5006666;28;20018;-60
2023/01/17 12:52:58;;;;;;;5.28;2.92;;;;;;;17.95;42.86;98662.38;5024559;28;20030;-61
2023/01/17 12:55:48;;;;;;;5.35;3.05;;;;;;;17.95;42.84;98664.25;5024247;28;20049;-61
2023/01/17 12:58:19;;;;;;;4.13;2.88;;;;;;;17.95;42.70;98669.63;5007835;28;20027;-61
2023/01/17 13:00:46;;;;;;;6.70;2.88;;;;;;;17.96;42.73;98661.31;5024707;28;20033;-61
2023/01/17 13:03:44;;;;;;;4.38;2.80;;;;;;;17.97;42.94;98662.19;5007452;28;20026;-61
2023/01/17 13:06:15;;;;;;;4.40;2.88;;;;;;;17.97;43.18;98663.00;4978508;28;20439;-61